sensor_id;sensor_type;location;lat;lon;timestamp;P1;durP1;ratioP1;P2;durP2;ratioP2
76703;SDS011;70080;44.504;0.168;2023-06-22T00:01:37;11.03;;;6.20;;
76703;SDS011;70080;44.504;0.168;2023-06-22T00:07:11;13.43;;;6.47;;
76703;SDS011;70080;44.504;0.168;2023-06-22T00:12:43;9.53;;;6.10;;
76703;SDS011;70080;44.504;0.168;2023-06-22T00:18:16;9.97;;;5.50;;
76703;SDS011;70080;44.504;0.168;2023-06-22T00:23:48;12.67;;;6.10;;
76703;SDS011;70080;44.504;0.168;2023-06-22T00:29:21;11.60;;;7.37;;
76703;SDS011;70080;44.504;0.168;2023-06-22T00:34:53;11.53;;;6.77;;
76703;SDS011;70080;44.504;0.168;2023-06-22T00:40:27;10.53;;;5.17;;
76703;SDS011;70080;44.504;0.168;2023-06-22T00:46:00;8.70;;;5.67;;
76703;SDS011;70080;44.504;0.168;2023-06-22T00:51:32;12.23;;;6.37;;
76703;SDS011;70080;44.504;0.168;2023-06-22T00:57:05;15.10;;;4.43;;
76703;SDS011;70080;44.504;0.168;2023-06-22T01:02:39;3.00;;;2.37;;
76703;SDS011;70080;44.504;0.168;2023-06-22T01:08:16;2.03;;;1.13;;
76703;SDS011;70080;44.504;0.168;2023-06-22T01:13:45;2.03;;;1.20;;
76703;SDS011;70080;44.504;0.168;2023-06-22T01:19:24;1.03;;;0.93;;
76703;SDS011;70080;44.504;0.168;2023-06-22T01:24:51;1.27;;;0.63;;
76703;SDS011;70080;44.504;0.168;2023-06-22T01:30:21;1.40;;;0.87;;
76703;SDS011;70080;44.504;0.168;2023-06-22T01:35:53;0.90;;;0.77;;
76703;SDS011;70080;44.504;0.168;2023-06-22T01:41:25;3.73;;;0.73;;
76703;SDS011;70080;44.504;0.168;2023-06-22T01:46:58;3.83;;;0.70;;
76703;SDS011;70080;44.504;0.168;2023-06-22T01:52:30;1.63;;;0.90;;
76703;SDS011;70080;44.504;0.168;2023-06-22T01:58:04;1.47;;;0.83;;
76703;SDS011;70080;44.504;0.168;2023-06-22T02:03:37;1.43;;;0.63;;
76703;SDS011;70080;44.504;0.168;2023-06-22T02:09:09;1.70;;;0.70;;
76703;SDS011;70080;44.504;0.168;2023-06-22T02:14:43;3.67;;;0.80;;
76703;SDS011;70080;44.504;0.168;2023-06-22T02:20:15;2.00;;;1.10;;
76703;SDS011;70080;44.504;0.168;2023-06-22T02:25:46;1.83;;;0.93;;
76703;SDS011;70080;44.504;0.168;2023-06-22T02:31:19;1.83;;;1.13;;
76703;SDS011;70080;44.504;0.168;2023-06-22T02:36:52;2.17;;;1.10;;
76703;SDS011;70080;44.504;0.168;2023-06-22T02:42:26;2.10;;;1.10;;
76703;SDS011;70080;44.504;0.168;2023-06-22T02:47:58;2.80;;;1.23;;
76703;SDS011;70080;44.504;0.168;2023-06-22T02:53:31;6.37;;;1.47;;
76703;SDS011;70080;44.504;0.168;2023-06-22T02:59:03;1.47;;;1.10;;
76703;SDS011;70080;44.504;0.168;2023-06-22T03:04:36;11.53;;;1.87;;
76703;SDS011;70080;44.504;0.168;2023-06-22T03:10:10;3.03;;;1.50;;
76703;SDS011;70080;44.504;0.168;2023-06-22T03:15:41;1.63;;;1.20;;
76703;SDS011;70080;44.504;0.168;2023-06-22T03:21:15;3.83;;;1.50;;
76703;SDS011;70080;44.504;0.168;2023-06-22T03:26:47;3.27;;;1.60;;
76703;SDS011;70080;44.504;0.168;2023-06-22T03:32:20;2.67;;;1.30;;
76703;SDS011;70080;44.504;0.168;2023-06-22T03:37:54;3.60;;;1.40;;
76703;SDS011;70080;44.504;0.168;2023-06-22T03:43:26;2.90;;;1.60;;
76703;SDS011;70080;44.504;0.168;2023-06-22T03:48:59;5.57;;;1.83;;
76703;SDS011;70080;44.504;0.168;2023-06-22T03:54:31;6.30;;;2.40;;
76703;SDS011;70080;44.504;0.168;2023-06-22T04:00:06;5.70;;;1.97;;
76703;SDS011;70080;44.504;0.168;2023-06-22T04:05:38;5.20;;;1.97;;
76703;SDS011;70080;44.504;0.168;2023-06-22T04:11:10;5.17;;;2.30;;
76703;SDS011;70080;44.504;0.168;2023-06-22T04:16:42;3.57;;;2.30;;
76703;SDS011;70080;44.504;0.168;2023-06-22T04:22:17;4.13;;;1.77;;
76703;SDS011;70080;44.504;0.168;2023-06-22T04:27:48;5.00;;;2.83;;
76703;SDS011;70080;44.504;0.168;2023-06-22T04:33:21;6.97;;;1.97;;
76703;SDS011;70080;44.504;0.168;2023-06-22T04:38:53;5.67;;;2.07;;
76703;SDS011;70080;44.504;0.168;2023-06-22T04:44:27;5.40;;;2.43;;
76703;SDS011;70080;44.504;0.168;2023-06-22T04:50:00;13.57;;;2.50;;
76703;SDS011;70080;44.504;0.168;2023-06-22T04:55:33;5.53;;;2.37;;
76703;SDS011;70080;44.504;0.168;2023-06-22T05:01:04;6.90;;;3.03;;
76703;SDS011;70080;44.504;0.168;2023-06-22T05:06:38;6.10;;;2.50;;
76703;SDS011;70080;44.504;0.168;2023-06-22T05:12:12;4.20;;;2.57;;
76703;SDS011;70080;44.504;0.168;2023-06-22T05:17:43;5.13;;;2.50;;
76703;SDS011;70080;44.504;0.168;2023-06-22T05:23:16;7.77;;;2.37;;
76703;SDS011;70080;44.504;0.168;2023-06-22T05:28:49;5.67;;;2.20;;
76703;SDS011;70080;44.504;0.168;2023-06-22T05:34:23;7.07;;;3.13;;
76703;SDS011;70080;44.504;0.168;2023-06-22T05:39:58;3.97;;;2.47;;
76703;SDS011;70080;44.504;0.168;2023-06-22T05:45:29;6.20;;;2.53;;
76703;SDS011;70080;44.504;0.168;2023-06-22T05:51:02;6.90;;;2.90;;
76703;SDS011;70080;44.504;0.168;2023-06-22T05:56:35;6.90;;;3.10;;
76703;SDS011;70080;44.504;0.168;2023-06-22T06:02:09;5.57;;;2.77;;
76703;SDS011;70080;44.504;0.168;2023-06-22T06:07:42;6.53;;;2.90;;
76703;SDS011;70080;44.504;0.168;2023-06-22T06:13:16;8.20;;;3.07;;
76703;SDS011;70080;44.504;0.168;2023-06-22T06:18:51;4.87;;;2.13;;
76703;SDS011;70080;44.504;0.168;2023-06-22T06:24:22;4.63;;;2.73;;
76703;SDS011;70080;44.504;0.168;2023-06-22T06:29:54;3.90;;;2.53;;
76703;SDS011;70080;44.504;0.168;2023-06-22T06:35:26;4.77;;;2.90;;
76703;SDS011;70080;44.504;0.168;2023-06-22T06:40:59;7.33;;;2.33;;
76703;SDS011;70080;44.504;0.168;2023-06-22T06:46:32;8.33;;;2.63;;
76703;SDS011;70080;44.504;0.168;2023-06-22T06:52:05;4.40;;;2.53;;
76703;SDS011;70080;44.504;0.168;2023-06-22T06:57:38;7.50;;;2.90;;
76703;SDS011;70080;44.504;0.168;2023-06-22T07:03:09;4.77;;;3.03;;
76703;SDS011;70080;44.504;0.168;2023-06-22T07:08:42;10.13;;;3.30;;
76703;SDS011;70080;44.504;0.168;2023-06-22T07:14:14;7.63;;;2.90;;
76703;SDS011;70080;44.504;0.168;2023-06-22T07:19:46;7.07;;;2.90;;
76703;SDS011;70080;44.504;0.168;2023-06-22T07:25:19;6.27;;;3.03;;
76703;SDS011;70080;44.504;0.168;2023-06-22T07:30:52;6.30;;;2.93;;
76703;SDS011;70080;44.504;0.168;2023-06-22T07:36:24;6.33;;;3.73;;
76703;SDS011;70080;44.504;0.168;2023-06-22T07:41:57;9.30;;;3.50;;
76703;SDS011;70080;44.504;0.168;2023-06-22T07:47:30;8.17;;;4.10;;
76703;SDS011;70080;44.504;0.168;2023-06-22T07:53:02;4.60;;;3.10;;
76703;SDS011;70080;44.504;0.168;2023-06-22T07:58:34;5.80;;;3.07;;
76703;SDS011;70080;44.504;0.168;2023-06-22T08:04:06;8.17;;;4.00;;
76703;SDS011;70080;44.504;0.168;2023-06-22T08:09:38;11.10;;;3.80;;
76703;SDS011;70080;44.504;0.168;2023-06-22T08:15:10;6.37;;;3.47;;
76703;SDS011;70080;44.504;0.168;2023-06-22T08:20:43;9.07;;;4.03;;
76703;SDS011;70080;44.504;0.168;2023-06-22T08:26:17;5.27;;;3.57;;
76703;SDS011;70080;44.504;0.168;2023-06-22T08:31:46;4.53;;;2.90;;
76703;SDS011;70080;44.504;0.168;2023-06-22T08:37:20;7.87;;;3.93;;
76703;SDS011;70080;44.504;0.168;2023-06-22T08:42:53;9.97;;;3.10;;
76703;SDS011;70080;44.504;0.168;2023-06-22T08:48:26;6.17;;;3.43;;
76703;SDS011;70080;44.504;0.168;2023-06-22T08:53:58;7.37;;;3.63;;
76703;SDS011;70080;44.504;0.168;2023-06-22T08:59:33;6.13;;;4.00;;
76703;SDS011;70080;44.504;0.168;2023-06-22T09:05:06;9.60;;;4.10;;
76703;SDS011;70080;44.504;0.168;2023-06-22T09:10:39;8.17;;;4.00;;
76703;SDS011;70080;44.504;0.168;2023-06-22T09:16:12;7.10;;;3.40;;
76703;SDS011;70080;44.504;0.168;2023-06-22T09:21:45;6.07;;;3.13;;
76703;SDS011;70080;44.504;0.168;2023-06-22T09:27:19;6.60;;;3.73;;
76703;SDS011;70080;44.504;0.168;2023-06-22T09:32:50;6.33;;;3.53;;
76703;SDS011;70080;44.504;0.168;2023-06-22T09:38:23;7.13;;;3.23;;
76703;SDS011;70080;44.504;0.168;2023-06-22T09:43:56;6.30;;;3.60;;
76703;SDS011;70080;44.504;0.168;2023-06-22T09:49:29;6.37;;;4.20;;
76703;SDS011;70080;44.504;0.168;2023-06-22T09:55:04;7.77;;;3.57;;
76703;SDS011;70080;44.504;0.168;2023-06-22T10:00:35;7.30;;;3.37;;
76703;SDS011;70080;44.504;0.168;2023-06-22T10:06:07;7.10;;;3.40;;
76703;SDS011;70080;44.504;0.168;2023-06-22T10:11:39;6.00;;;3.57;;
76703;SDS011;70080;44.504;0.168;2023-06-22T10:17:12;6.63;;;3.20;;
76703;SDS011;70080;44.504;0.168;2023-06-22T10:22:45;10.63;;;3.67;;
76703;SDS011;70080;44.504;0.168;2023-06-22T10:28:18;4.57;;;3.30;;
76703;SDS011;70080;44.504;0.168;2023-06-22T10:33:51;5.87;;;3.23;;
76703;SDS011;70080;44.504;0.168;2023-06-22T10:39:23;8.73;;;4.53;;
76703;SDS011;70080;44.504;0.168;2023-06-22T10:44:56;6.30;;;3.97;;
76703;SDS011;70080;44.504;0.168;2023-06-22T10:50:28;7.07;;;3.80;;
76703;SDS011;70080;44.504;0.168;2023-06-22T10:56:02;5.67;;;3.50;;
76703;SDS011;70080;44.504;0.168;2023-06-22T11:01:34;9.20;;;3.77;;
76703;SDS011;70080;44.504;0.168;2023-06-22T11:07:08;6.30;;;3.70;;
76703;SDS011;70080;44.504;0.168;2023-06-22T11:12:41;7.27;;;3.77;;
76703;SDS011;70080;44.504;0.168;2023-06-22T11:18:14;7.43;;;2.93;;
76703;SDS011;70080;44.504;0.168;2023-06-22T11:23:46;7.47;;;3.10;;
76703;SDS011;70080;44.504;0.168;2023-06-22T11:29:19;6.57;;;3.30;;
76703;SDS011;70080;44.504;0.168;2023-06-22T11:34:51;5.03;;;3.17;;
76703;SDS011;70080;44.504;0.168;2023-06-22T11:40:23;5.37;;;3.67;;
76703;SDS011;70080;44.504;0.168;2023-06-22T11:45:56;3.87;;;2.53;;
76703;SDS011;70080;44.504;0.168;2023-06-22T11:51:28;4.07;;;2.77;;
76703;SDS011;70080;44.504;0.168;2023-06-22T11:57:01;4.03;;;2.87;;
76703;SDS011;70080;44.504;0.168;2023-06-22T12:02:33;4.90;;;2.57;;
76703;SDS011;70080;44.504;0.168;2023-06-22T12:08:07;5.33;;;2.67;;
76703;SDS011;70080;44.504;0.168;2023-06-22T12:13:39;3.80;;;2.97;;
76703;SDS011;70080;44.504;0.168;2023-06-22T12:19:12;5.17;;;3.27;;
76703;SDS011;70080;44.504;0.168;2023-06-22T12:24:44;3.87;;;2.80;;
76703;SDS011;70080;44.504;0.168;2023-06-22T12:30:17;3.63;;;1.83;;
76703;SDS011;70080;44.504;0.168;2023-06-22T12:35:50;-1.00;;;-1.00;;
76703;SDS011;70080;44.504;0.168;2023-06-22T12:41:24;5.33;;;2.90;;
76703;SDS011;70080;44.504;0.168;2023-06-22T12:46:56;4.97;;;2.90;;
76703;SDS011;70080;44.504;0.168;2023-06-22T12:52:29;9.03;;;3.33;;
76703;SDS011;70080;44.504;0.168;2023-06-22T12:58:01;21.23;;;3.97;;
76703;SDS011;70080;44.504;0.168;2023-06-22T13:03:34;6.90;;;3.00;;
76703;SDS011;70080;44.504;0.168;2023-06-22T13:09:07;7.57;;;2.90;;
76703;SDS011;70080;44.504;0.168;2023-06-22T13:14:40;7.57;;;4.00;;
76703;SDS011;70080;44.504;0.168;2023-06-22T13:20:14;8.30;;;3.33;;
76703;SDS011;70080;44.504;0.168;2023-06-22T13:25:46;7.77;;;2.80;;
76703;SDS011;70080;44.504;0.168;2023-06-22T13:31:19;4.93;;;2.80;;
76703;SDS011;70080;44.504;0.168;2023-06-22T13:36:52;5.23;;;2.87;;
76703;SDS011;70080;44.504;0.168;2023-06-22T13:42:24;5.43;;;2.80;;
76703;SDS011;70080;44.504;0.168;2023-06-22T13:47:56;7.50;;;3.30;;
76703;SDS011;70080;44.504;0.168;2023-06-22T13:53:30;8.30;;;2.83;;
76703;SDS011;70080;44.504;0.168;2023-06-22T13:59:03;4.20;;;2.77;;
76703;SDS011;70080;44.504;0.168;2023-06-22T14:04:36;4.90;;;3.33;;
76703;SDS011;70080;44.504;0.168;2023-06-22T14:10:10;7.80;;;3.80;;
76703;SDS011;70080;44.504;0.168;2023-06-22T14:15:41;5.30;;;3.40;;
76703;SDS011;70080;44.504;0.168;2023-06-22T14:21:14;5.43;;;2.63;;
76703;SDS011;70080;44.504;0.168;2023-06-22T14:26:47;7.60;;;3.37;;
76703;SDS011;70080;44.504;0.168;2023-06-22T14:32:20;4.23;;;3.13;;
76703;SDS011;70080;44.504;0.168;2023-06-22T14:37:52;7.30;;;3.70;;
76703;SDS011;70080;44.504;0.168;2023-06-22T14:43:26;8.50;;;3.37;;
76703;SDS011;70080;44.504;0.168;2023-06-22T14:48:58;5.13;;;2.90;;
76703;SDS011;70080;44.504;0.168;2023-06-22T14:54:31;4.00;;;2.43;;
76703;SDS011;70080;44.504;0.168;2023-06-22T15:00:04;5.03;;;2.27;;
76703;SDS011;70080;44.504;0.168;2023-06-22T15:05:35;7.63;;;2.87;;
76703;SDS011;70080;44.504;0.168;2023-06-22T15:11:09;3.13;;;2.30;;
76703;SDS011;70080;44.504;0.168;2023-06-22T15:16:43;5.23;;;3.30;;
76703;SDS011;70080;44.504;0.168;2023-06-22T15:22:18;-1.00;;;-1.00;;
76703;SDS011;70080;44.504;0.168;2023-06-22T15:27:49;6.80;;;3.80;;
76703;SDS011;70080;44.504;0.168;2023-06-22T15:33:24;11.07;;;3.97;;
76703;SDS011;70080;44.504;0.168;2023-06-22T15:38:56;7.57;;;4.97;;
76703;SDS011;70080;44.504;0.168;2023-06-22T15:44:29;5.77;;;4.27;;
76703;SDS011;70080;44.504;0.168;2023-06-22T15:50:02;6.30;;;3.87;;
76703;SDS011;70080;44.504;0.168;2023-06-22T15:55:35;7.07;;;3.90;;
76703;SDS011;70080;44.504;0.168;2023-06-22T16:01:09;4.83;;;2.83;;
76703;SDS011;70080;44.504;0.168;2023-06-22T16:06:41;7.53;;;3.67;;
76703;SDS011;70080;44.504;0.168;2023-06-22T16:12:13;5.07;;;3.00;;
76703;SDS011;70080;44.504;0.168;2023-06-22T16:17:45;3.20;;;2.20;;
76703;SDS011;70080;44.504;0.168;2023-06-22T16:23:19;5.30;;;3.23;;
76703;SDS011;70080;44.504;0.168;2023-06-22T16:28:51;6.87;;;2.40;;
76703;SDS011;70080;44.504;0.168;2023-06-22T16:34:24;5.13;;;3.03;;
76703;SDS011;70080;44.504;0.168;2023-06-22T16:39:59;4.07;;;2.80;;
76703;SDS011;70080;44.504;0.168;2023-06-22T16:45:33;7.77;;;2.90;;
76703;SDS011;70080;44.504;0.168;2023-06-22T16:51:02;5.33;;;2.90;;
76703;SDS011;70080;44.504;0.168;2023-06-22T16:56:34;6.70;;;2.57;;
76703;SDS011;70080;44.504;0.168;2023-06-22T17:02:06;5.90;;;2.87;;
76703;SDS011;70080;44.504;0.168;2023-06-22T17:07:39;6.53;;;2.97;;
76703;SDS011;70080;44.504;0.168;2023-06-22T17:13:12;4.60;;;3.37;;
76703;SDS011;70080;44.504;0.168;2023-06-22T17:18:44;4.83;;;2.37;;
76703;SDS011;70080;44.504;0.168;2023-06-22T17:24:17;5.13;;;2.93;;
76703;SDS011;70080;44.504;0.168;2023-06-22T17:29:48;3.90;;;3.03;;
76703;SDS011;70080;44.504;0.168;2023-06-22T17:35:21;7.83;;;3.60;;
76703;SDS011;70080;44.504;0.168;2023-06-22T17:40:59;7.37;;;3.47;;
76703;SDS011;70080;44.504;0.168;2023-06-22T17:46:33;7.13;;;3.60;;
76703;SDS011;70080;44.504;0.168;2023-06-22T17:52:00;8.17;;;2.77;;
76703;SDS011;70080;44.504;0.168;2023-06-22T17:57:35;-1.00;;;-1.00;;
76703;SDS011;70080;44.504;0.168;2023-06-22T18:03:05;6.43;;;3.33;;
76703;SDS011;70080;44.504;0.168;2023-06-22T18:08:39;10.07;;;4.10;;
76703;SDS011;70080;44.504;0.168;2023-06-22T18:14:13;5.53;;;3.10;;
76703;SDS011;70080;44.504;0.168;2023-06-22T18:19:45;5.83;;;3.07;;
76703;SDS011;70080;44.504;0.168;2023-06-22T18:25:17;8.57;;;4.13;;
76703;SDS011;70080;44.504;0.168;2023-06-22T18:30:51;6.97;;;3.63;;
76703;SDS011;70080;44.504;0.168;2023-06-22T18:36:24;10.53;;;3.80;;
76703;SDS011;70080;44.504;0.168;2023-06-22T18:41:55;7.20;;;3.57;;
76703;SDS011;70080;44.504;0.168;2023-06-22T18:47:30;-1.00;;;-1.00;;
76703;SDS011;70080;44.504;0.168;2023-06-22T18:53:02;7.87;;;3.93;;
76703;SDS011;70080;44.504;0.168;2023-06-22T18:58:34;9.97;;;4.87;;
76703;SDS011;70080;44.504;0.168;2023-06-22T19:04:14;8.40;;;3.83;;
76703;SDS011;70080;44.504;0.168;2023-06-22T19:09:40;8.67;;;4.43;;
76703;SDS011;70080;44.504;0.168;2023-06-22T19:15:12;5.90;;;4.30;;
76703;SDS011;70080;44.504;0.168;2023-06-22T19:20:46;11.10;;;4.50;;
76703;SDS011;70080;44.504;0.168;2023-06-22T19:26:19;7.47;;;4.00;;
76703;SDS011;70080;44.504;0.168;2023-06-22T19:31:50;11.17;;;4.10;;
76703;SDS011;70080;44.504;0.168;2023-06-22T19:37:23;9.47;;;4.37;;
76703;SDS011;70080;44.504;0.168;2023-06-22T19:42:56;9.37;;;4.17;;
76703;SDS011;70080;44.504;0.168;2023-06-22T19:48:29;7.80;;;4.50;;
76703;SDS011;70080;44.504;0.168;2023-06-22T19:54:03;14.37;;;6.07;;
76703;SDS011;70080;44.504;0.168;2023-06-22T19:59:34;9.53;;;5.23;;
76703;SDS011;70080;44.504;0.168;2023-06-22T20:05:08;8.43;;;4.47;;
76703;SDS011;70080;44.504;0.168;2023-06-22T20:10:40;8.17;;;4.70;;
76703;SDS011;70080;44.504;0.168;2023-06-22T20:16:11;9.90;;;4.63;;
76703;SDS011;70080;44.504;0.168;2023-06-22T20:21:44;6.33;;;4.87;;
76703;SDS011;70080;44.504;0.168;2023-06-22T20:27:16;11.13;;;5.13;;
76703;SDS011;70080;44.504;0.168;2023-06-22T20:32:49;8.77;;;4.43;;
76703;SDS011;70080;44.504;0.168;2023-06-22T20:38:23;8.57;;;4.00;;
76703;SDS011;70080;44.504;0.168;2023-06-22T20:43:54;9.10;;;5.17;;
76703;SDS011;70080;44.504;0.168;2023-06-22T20:49:27;10.17;;;5.70;;
76703;SDS011;70080;44.504;0.168;2023-06-22T20:55:02;8.43;;;4.93;;
76703;SDS011;70080;44.504;0.168;2023-06-22T21:00:35;8.43;;;4.83;;
76703;SDS011;70080;44.504;0.168;2023-06-22T21:06:04;14.70;;;6.57;;
76703;SDS011;70080;44.504;0.168;2023-06-22T21:11:36;13.23;;;5.00;;
76703;SDS011;70080;44.504;0.168;2023-06-22T21:17:09;8.03;;;4.37;;
76703;SDS011;70080;44.504;0.168;2023-06-22T21:22:42;9.93;;;5.20;;
76703;SDS011;70080;44.504;0.168;2023-06-22T21:28:14;9.20;;;4.57;;
76703;SDS011;70080;44.504;0.168;2023-06-22T21:33:48;12.83;;;5.80;;
76703;SDS011;70080;44.504;0.168;2023-06-22T21:39:19;10.70;;;3.90;;
76703;SDS011;70080;44.504;0.168;2023-06-22T21:44:53;10.40;;;5.47;;
76703;SDS011;70080;44.504;0.168;2023-06-22T21:50:25;7.30;;;4.87;;
76703;SDS011;70080;44.504;0.168;2023-06-22T21:55:59;10.20;;;5.53;;
76703;SDS011;70080;44.504;0.168;2023-06-22T22:01:32;14.47;;;5.10;;
76703;SDS011;70080;44.504;0.168;2023-06-22T22:07:05;11.77;;;5.20;;
76703;SDS011;70080;44.504;0.168;2023-06-22T22:12:36;9.93;;;5.43;;
76703;SDS011;70080;44.504;0.168;2023-06-22T22:18:10;8.17;;;4.60;;
76703;SDS011;70080;44.504;0.168;2023-06-22T22:23:42;11.13;;;5.90;;
76703;SDS011;70080;44.504;0.168;2023-06-22T22:29:15;11.20;;;5.87;;
76703;SDS011;70080;44.504;0.168;2023-06-22T22:34:47;14.33;;;5.77;;
76703;SDS011;70080;44.504;0.168;2023-06-22T22:40:21;14.93;;;5.40;;
76703;SDS011;70080;44.504;0.168;2023-06-22T22:45:53;10.20;;;6.03;;
76703;SDS011;70080;44.504;0.168;2023-06-22T22:51:25;10.80;;;5.50;;
76703;SDS011;70080;44.504;0.168;2023-06-22T22:56:58;14.23;;;5.87;;
76703;SDS011;70080;44.504;0.168;2023-06-22T23:02:31;11.07;;;6.03;;
76703;SDS011;70080;44.504;0.168;2023-06-22T23:08:04;14.03;;;6.77;;
76703;SDS011;70080;44.504;0.168;2023-06-22T23:13:36;15.33;;;6.90;;
76703;SDS011;70080;44.504;0.168;2023-06-22T23:19:08;15.57;;;6.07;;
76703;SDS011;70080;44.504;0.168;2023-06-22T23:24:42;13.00;;;6.13;;
76703;SDS011;70080;44.504;0.168;2023-06-22T23:30:15;10.17;;;5.67;;
76703;SDS011;70080;44.504;0.168;2023-06-22T23:35:47;10.77;;;6.03;;
76703;SDS011;70080;44.504;0.168;2023-06-22T23:41:20;13.83;;;6.40;;
76703;SDS011;70080;44.504;0.168;2023-06-22T23:46:52;11.43;;;6.40;;
76703;SDS011;70080;44.504;0.168;2023-06-22T23:52:24;10.97;;;6.60;;
76703;SDS011;70080;44.504;0.168;2023-06-22T23:57:57;13.63;;;7.67;;
